Delta — PDPC — position and weather

sailwx.info

Track history (hours):
 
Tides and Currents Weather Stations Pressure Air Temp Water Temp Dewpoint Dewpoint Depression Visibility Wind Speed Wind Dir Waves Ship Positions

Oceanographic research ship Delta (Netherlands)

Detailed information on ship capabilities available from University of Delaware's Ocean Information Center.

Last reported at 2017-Sep-24 16:55 UTC. Time now 2017-Sep-24 17:23 UTC.
Position N 51°27' E 004°01'.

MMSI: 244696464.

Date/timePositionNaut miles runAvg speedWind from/ knotsBaromVisibWave heightAir tempDewpointWater temp
2017-Sep-24 16:55N 51°27' E 004°01'0 0.0
2017-Sep-24 16:19N 51°27' E 004°01'0 0.0
2017-Sep-24 15:52N 51°27' E 004°01'0 0.0
2017-Sep-24 15:07N 51°27' E 004°01'0 0.0
2017-Sep-24 13:43N 51°27' E 004°01'0 0.0
2017-Sep-24 13:19N 51°27' E 004°01'0 0.0
2017-Sep-24 10:13N 51°27' E 004°01'0 0.0
2017-Sep-24 09:55N 51°27' E 004°01'0 0.0
2017-Sep-24 08:55N 51°27' E 004°01'0 0.0
2017-Sep-24 08:13N 51°27' E 004°01'0 0.0
2017-Sep-24 07:49N 51°27' E 004°01'0 0.0
2017-Sep-24 07:19N 51°27' E 004°01'0 0.0
2017-Sep-24 06:55N 51°27' E 004°01'0 0.0
2017-Sep-24 05:13N 51°27' E 004°01'0 0.0
2017-Sep-24 03:52N 51°27' E 004°01'0 0.0
2017-Sep-24 02:49N 51°27' E 004°01'0 0.0
2017-Sep-24 01:01N 51°27' E 004°01'0 0.0
2017-Sep-24 00:49N 51°27' E 004°01'0 0.0
2017-Sep-23 23:37N 51°27' E 004°01'0 0.0
2017-Sep-23 21:55N 51°27' E 004°01'0 0.0
2017-Sep-23 21:19N 51°27' E 004°01'0 0.0
2017-Sep-23 20:55N 51°27' E 004°01'0 0.0
2017-Sep-23 20:19N 51°27' E 004°01'0 0.0
2017-Sep-22 01:49N 51°27' E 004°01'0 0.0
2017-Sep-22 00:43N 51°27' E 004°01'0 0.0
2017-Sep-22 00:19N 51°27' E 004°01'0 0.0
2017-Sep-21 23:49N 51°27' E 004°01'0 0.0
2017-Sep-21 22:40N 51°27' E 004°01'0 0.0
2017-Sep-21 22:28N 51°27' E 004°01'0 0.0
2017-Sep-21 20:19N 51°27' E 004°01'0 0.0
2017-Sep-21 19:55N 51°27' E 004°01'0 0.0
2017-Sep-21 19:25N 51°27' E 004°01'0 0.0
2017-Sep-21 18:55N 51°27' E 004°01'0 0.0
2017-Sep-21 18:13N 51°27' E 004°01'0 0.0
2017-Sep-21 17:55N 51°27' E 004°01'0 0.0
2017-Sep-21 17:25N 51°27' E 004°01'0 0.0
2017-Sep-21 16:19N 51°27' E 004°01'0 0.0
2017-Sep-21 15:55N 51°27' E 004°01'0 0.0
2017-Sep-21 15:28N 51°27' E 004°01'0 0.0
2017-Sep-21 14:46N 51°27' E 004°01'0 0.0
2017-Sep-21 14:19N 51°27' E 004°01'0 0.0
2017-Sep-21 13:49N 51°27' E 004°01'0 0.0
2017-Sep-21 13:25N 51°27' E 004°01'0 0.0
2017-Sep-21 12:49N 51°27' E 004°01'0 0.0
2017-Sep-21 12:25N 51°27' E 004°01'0 0.0
2017-Sep-21 11:43N 51°27' E 004°01'0 0.5
2017-Sep-21 11:14N 51°27' E 004°01'1 5.1
2017-Sep-21 11:00N 51°26' E 004°02'3 6.5
2017-Sep-21 10:30N 51°24' E 004°05'3 4.8
2017-Sep-21 09:59N 51°23' E 004°09'3 6.5
2017-Sep-21 09:30N 51°22' E 004°14'1 2.0
2017-Sep-21 08:59N 51°21' E 004°15'2 4.2
2017-Sep-21 08:30N 51°23' E 004°13'2 3.6
2017-Sep-21 08:00N 51°23' E 004°10'2 4.6
2017-Sep-21 07:30N 51°22' E 004°07'3 5.6
2017-Sep-21 07:00N 51°24' E 004°04'3 5.6
2017-Sep-21 06:29N 51°27' E 004°01'1 1.1
2017-Sep-21 06:00N 51°26' E 004°00'3 5.6
2017-Sep-21 05:30N 51°24' E 003°57'2 5.0
2017-Sep-21 05:00N 51°22' E 003°55'3 5.1
2017-Sep-21 04:28N 51°21' E 003°51'1 2.4
2017-Sep-21 03:55N 51°20' E 003°49'0 0.2
2017-Sep-21 03:16N 51°20' E 003°49'0 0.0
2017-Sep-21 02:55N 51°20' E 003°49'0 0.0
2017-Sep-21 02:28N 51°20' E 003°49'0 0.0
2017-Sep-21 01:55N 51°20' E 003°49'0 0.0
2017-Sep-21 01:25N 51°20' E 003°49'0 0.0
2017-Sep-21 00:58N 51°20' E 003°49'0 0.0
2017-Sep-21 00:19N 51°20' E 003°49'0 0.0
2017-Sep-20 23:55N 51°20' E 003°49'0 0.0
2017-Sep-20 23:28N 51°20' E 003°49'0 0.0
2017-Sep-20 22:55N 51°20' E 003°49'0 0.0
2017-Sep-20 22:28N 51°20' E 003°49'0 0.0
2017-Sep-20 21:58N 51°20' E 003°49'0 0.0
2017-Sep-20 21:25N 51°20' E 003°49'0 0.0
2017-Sep-20 20:55N 51°20' E 003°49'0 0.0
2017-Sep-20 20:25N 51°20' E 003°49'0 0.0
2017-Sep-20 19:55N 51°20' E 003°49'0 0.0
2017-Sep-20 19:13N 51°20' E 003°49'0 0.0
2017-Sep-20 18:55N 51°20' E 003°49'0 0.0
2017-Sep-20 18:25N 51°20' E 003°49'0 0.0
2017-Sep-20 17:52N 51°20' E 003°49'0 0.0
2017-Sep-20 17:25N 51°20' E 003°49'0 0.0
2017-Sep-20 16:55N 51°20' E 003°49'0 0.0
2017-Sep-20 16:25N 51°20' E 003°49'0 0.0
2017-Sep-20 15:58N 51°20' E 003°49'0 0.0
2017-Sep-20 15:25N 51°20' E 003°49'0 0.0
2017-Sep-20 14:55N 51°20' E 003°49'0 0.0
2017-Sep-20 13:37N 51°20' E 003°49'0 0.0
2017-Sep-20 13:28N 51°20' E 003°49'0 0.0
2017-Sep-20 12:58N 51°20' E 003°49'0 0.0
2017-Sep-20 12:25N 51°20' E 003°49'0 0.0
2017-Sep-20 11:58N 51°20' E 003°49'0 0.0
2017-Sep-20 11:25N 51°20' E 003°49'0 0.0
2017-Sep-20 10:58N 51°20' E 003°49'0 0.0
2017-Sep-20 10:28N 51°20' E 003°49'2 3.8
2017-Sep-20 10:00N 51°18' E 003°50'4 7.6
2017-Sep-20 09:31N 51°15' E 003°49'3 7.0
2017-Sep-20 09:00N 51°11' E 003°48'4 8.1
2017-Sep-20 08:30N 51°07' E 003°46'2 4.1
2017-Sep-20 08:00N 51°06' E 003°44'2 4.7
2017-Sep-20 07:31N 51°08' E 003°46'3 5.2
2017-Sep-20 07:00N 51°10' E 003°48'3 5.4
2017-Sep-20 06:30N 51°13' E 003°48'3 6.1
2017-Sep-20 06:00N 51°16' E 003°50'2 3.4
2017-Sep-20 05:30N 51°17' E 003°50'1 3.0
2017-Sep-20 05:00N 51°19' E 003°50'1 1.8
2017-Sep-20 04:30N 51°20' E 003°49'0 0.8
2017-Sep-20 03:58N 51°20' E 003°49'0 0.0
2017-Sep-20 03:28N 51°20' E 003°49'0 0.0
2017-Sep-20 02:55N 51°20' E 003°49'0 0.0
2017-Sep-20 02:28N 51°20' E 003°49'0 0.0
2017-Sep-20 01:58N 51°20' E 003°49'0 0.0
2017-Sep-20 01:25N 51°20' E 003°49'0 0.0
2017-Sep-20 00:55N 51°20' E 003°49'0 0.0
2017-Sep-20 00:25N 51°20' E 003°49'0 0.0
2017-Sep-19 23:58N 51°20' E 003°49'0 0.0
2017-Sep-19 23:19N 51°20' E 003°49'0 0.0
2017-Sep-19 22:55N 51°20' E 003°49'0 0.0
2017-Sep-19 22:28N 51°20' E 003°49'0 0.0
2017-Sep-19 21:55N 51°20' E 003°49'0 0.0
2017-Sep-19 21:25N 51°20' E 003°49'0 0.0
2017-Sep-19 20:55N 51°20' E 003°49'0 0.0
2017-Sep-19 20:19N 51°20' E 003°49'0 0.0
2017-Sep-19 19:55N 51°20' E 003°49'0 0.0
2017-Sep-19 19:25N 51°20' E 003°49'0 0.0
2017-Sep-19 18:58N 51°20' E 003°49'0 0.0
2017-Sep-19 18:22N 51°20' E 003°49'0 0.0
2017-Sep-19 17:55N 51°20' E 003°49'0 0.0
2017-Sep-19 17:28N 51°20' E 003°49'0 0.0
2017-Sep-19 16:55N 51°20' E 003°49'0 0.2
2017-Sep-19 16:30N 51°20' E 003°49'0 0.0
2017-Sep-19 16:00N 51°20' E 003°49'2 3.4
2017-Sep-19 15:30N 51°21' E 003°51'5 9.7
2017-Sep-19 15:01N 51°24' E 003°57'4 7.1
2017-Sep-19 14:29N 51°27' E 004°01'2 3.8
2017-Sep-19 14:00N 51°26' E 003°59'4 8.5
2017-Sep-19 13:30N 51°22' E 003°56'4 6.9
2017-Sep-19 12:55N 51°21' E 003°50'3 7.5
2017-Sep-19 12:30N 51°22' E 003°45'5 9.2
2017-Sep-19 12:00N 51°25' E 003°39'3 7.0
2017-Sep-19 11:31N 51°25' E 003°34'1 2.0
2017-Sep-19 11:00N 51°25' E 003°35'1 0.5
2017-Sep-19 08:47N 51°27' E 003°36'0 0.2
2017-Sep-19 08:30N 51°27' E 003°36'1 2.0
2017-Sep-19 08:00N 51°26' E 003°37'3 6.7
2017-Sep-19 07:30N 51°26' E 003°42'4 8.2
2017-Sep-19 07:00N 51°23' E 003°48'4 7.4
2017-Sep-19 06:30N 51°23' E 003°54'5 9.3
2017-Sep-19 06:00N 51°27' E 003°57'2 2.5
2017-Sep-19 05:05N 51°27' E 004°01'0 0.0
2017-Sep-19 03:17N 51°27' E 004°01'0 0.0
2017-Sep-19 02:59N 51°27' E 004°01'0 0.0
2017-Sep-19 02:17N 51°27' E 004°01'0 0.0
2017-Sep-19 01:47N 51°27' E 004°01'0 0.0
2017-Sep-19 01:23N 51°27' E 004°01'0 0.0
2017-Sep-19 00:53N 51°27' E 004°01'0 0.0
2017-Sep-19 00:11N 51°27' E 004°01'0 0.0
2017-Sep-18 23:47N 51°27' E 004°01'0 0.0
2017-Sep-18 23:23N 51°27' E 004°01'0 0.0
2017-Sep-18 22:53N 51°27' E 004°01'0 0.0
2017-Sep-18 17:47N 51°27' E 004°01'0 0.0
2017-Sep-18 17:29N 51°27' E 004°01'0 0.0
2017-Sep-18 16:53N 51°27' E 004°01'0 0.0
2017-Sep-18 15:47N 51°27' E 004°01'0 0.0
2017-Sep-18 14:17N 51°27' E 004°01'0 0.0
2017-Sep-18 13:59N 51°27' E 004°01'0 0.1
2017-Sep-18 12:40N 51°27' E 004°01'0 0.0
2017-Sep-18 12:07N 51°27' E 004°01'0 0.0
2017-Sep-18 11:55N 51°27' E 004°01'0 0.0
2017-Sep-18 11:28N 51°27' E 004°01'0 0.0
2017-Sep-18 10:39N 51°27' E 004°01'0 0.4
2017-Sep-18 10:19N 51°27' E 004°01'2 7.5
2017-Sep-18 10:00N 51°30' E 004°00'4 7.4
2017-Sep-18 09:30N 51°33' E 003°58'4 5.7
2017-Sep-18 08:47N 51°37' E 004°02'6 5.5
2017-Sep-18 07:40N 51°40' E 004°10'0 0.0
2017-Sep-17 04:47N 51°40' E 004°10'0 0.0
2017-Sep-17 04:26N 51°40' E 004°10'6 0.3
2017-Sep-16 10:36N 51°40' E 004°19'1 5.3
2017-Sep-16 10:28N 51°40' E 004°20'2 5.1
2017-Sep-16 10:00N 51°42' E 004°23'1 1.6
2017-Sep-16 09:30N 51°41' E 004°23'2 2.7
2017-Sep-16 08:51N 51°39' E 004°22'  
Track history (hours):
 
Tides and Currents Weather Stations Pressure Air Temp Water Temp Dewpoint Dewpoint Depression Visibility Wind Speed Wind Dir Waves Ship Positions

Oceanographic research ship Delta (Netherlands)

Detailed information on ship capabilities available from University of Delaware's Ocean Information Center.

Last reported at 2017-Sep-24 16:55 UTC. Time now 2017-Sep-24 17:23 UTC.
Position N 51°27' E 004°01'.

MMSI: 244696464.

Date/timePositionNaut miles runAvg speedWind from/ knotsBaromVisibWave heightAir tempDewpointWater temp
2017-Sep-24 16:55N 51°27' E 004°01'0 0.0
2017-Sep-24 16:19N 51°27' E 004°01'0 0.0
2017-Sep-24 15:52N 51°27' E 004°01'0 0.0
2017-Sep-24 15:07N 51°27' E 004°01'0 0.0
2017-Sep-24 13:43N 51°27' E 004°01'0 0.0
2017-Sep-24 13:19N 51°27' E 004°01'0 0.0
2017-Sep-24 10:13N 51°27' E 004°01'0 0.0
2017-Sep-24 09:55N 51°27' E 004°01'0 0.0
2017-Sep-24 08:55N 51°27' E 004°01'0 0.0
2017-Sep-24 08:13N 51°27' E 004°01'0 0.0
2017-Sep-24 07:49N 51°27' E 004°01'0 0.0
2017-Sep-24 07:19N 51°27' E 004°01'0 0.0
2017-Sep-24 06:55N 51°27' E 004°01'0 0.0
2017-Sep-24 05:13N 51°27' E 004°01'0 0.0
2017-Sep-24 03:52N 51°27' E 004°01'0 0.0
2017-Sep-24 02:49N 51°27' E 004°01'0 0.0
2017-Sep-24 01:01N 51°27' E 004°01'0 0.0
2017-Sep-24 00:49N 51°27' E 004°01'0 0.0
2017-Sep-23 23:37N 51°27' E 004°01'0 0.0
2017-Sep-23 21:55N 51°27' E 004°01'0 0.0
2017-Sep-23 21:19N 51°27' E 004°01'0 0.0
2017-Sep-23 20:55N 51°27' E 004°01'0 0.0
2017-Sep-23 20:19N 51°27' E 004°01'0 0.0
2017-Sep-22 01:49N 51°27' E 004°01'0 0.0
2017-Sep-22 00:43N 51°27' E 004°01'0 0.0
2017-Sep-22 00:19N 51°27' E 004°01'0 0.0
2017-Sep-21 23:49N 51°27' E 004°01'0 0.0
2017-Sep-21 22:40N 51°27' E 004°01'0 0.0
2017-Sep-21 22:28N 51°27' E 004°01'0 0.0
2017-Sep-21 20:19N 51°27' E 004°01'0 0.0
2017-Sep-21 19:55N 51°27' E 004°01'0 0.0
2017-Sep-21 19:25N 51°27' E 004°01'0 0.0
2017-Sep-21 18:55N 51°27' E 004°01'0 0.0
2017-Sep-21 18:13N 51°27' E 004°01'0 0.0
2017-Sep-21 17:55N 51°27' E 004°01'0 0.0
2017-Sep-21 17:25N 51°27' E 004°01'0 0.0
2017-Sep-21 16:19N 51°27' E 004°01'0 0.0
2017-Sep-21 15:55N 51°27' E 004°01'0 0.0
2017-Sep-21 15:28N 51°27' E 004°01'0 0.0
2017-Sep-21 14:46N 51°27' E 004°01'0 0.0
2017-Sep-21 14:19N 51°27' E 004°01'0 0.0
2017-Sep-21 13:49N 51°27' E 004°01'0 0.0
2017-Sep-21 13:25N 51°27' E 004°01'0 0.0
2017-Sep-21 12:49N 51°27' E 004°01'0 0.0
2017-Sep-21 12:25N 51°27' E 004°01'0 0.0
2017-Sep-21 11:43N 51°27' E 004°01'0 0.5
2017-Sep-21 11:14N 51°27' E 004°01'1 5.1
2017-Sep-21 11:00N 51°26' E 004°02'3 6.5
2017-Sep-21 10:30N 51°24' E 004°05'3 4.8
2017-Sep-21 09:59N 51°23' E 004°09'3 6.5
2017-Sep-21 09:30N 51°22' E 004°14'1 2.0
2017-Sep-21 08:59N 51°21' E 004°15'2 4.2
2017-Sep-21 08:30N 51°23' E 004°13'2 3.6
2017-Sep-21 08:00N 51°23' E 004°10'2 4.6
2017-Sep-21 07:30N 51°22' E 004°07'3 5.6
2017-Sep-21 07:00N 51°24' E 004°04'3 5.6
2017-Sep-21 06:29N 51°27' E 004°01'1 1.1
2017-Sep-21 06:00N 51°26' E 004°00'3 5.6
2017-Sep-21 05:30N 51°24' E 003°57'2 5.0
2017-Sep-21 05:00N 51°22' E 003°55'3 5.1
2017-Sep-21 04:28N 51°21' E 003°51'1 2.4
2017-Sep-21 03:55N 51°20' E 003°49'0 0.2
2017-Sep-21 03:16N 51°20' E 003°49'0 0.0
2017-Sep-21 02:55N 51°20' E 003°49'0 0.0
2017-Sep-21 02:28N 51°20' E 003°49'0 0.0
2017-Sep-21 01:55N 51°20' E 003°49'0 0.0
2017-Sep-21 01:25N 51°20' E 003°49'0 0.0
2017-Sep-21 00:58N 51°20' E 003°49'0 0.0
2017-Sep-21 00:19N 51°20' E 003°49'0 0.0
2017-Sep-20 23:55N 51°20' E 003°49'0 0.0
2017-Sep-20 23:28N 51°20' E 003°49'0 0.0
2017-Sep-20 22:55N 51°20' E 003°49'0 0.0
2017-Sep-20 22:28N 51°20' E 003°49'0 0.0
2017-Sep-20 21:58N 51°20' E 003°49'0 0.0
2017-Sep-20 21:25N 51°20' E 003°49'0 0.0
2017-Sep-20 20:55N 51°20' E 003°49'0 0.0
2017-Sep-20 20:25N 51°20' E 003°49'0 0.0
2017-Sep-20 19:55N 51°20' E 003°49'0 0.0
2017-Sep-20 19:13N 51°20' E 003°49'0 0.0
2017-Sep-20 18:55N 51°20' E 003°49'0 0.0
2017-Sep-20 18:25N 51°20' E 003°49'0 0.0
2017-Sep-20 17:52N 51°20' E 003°49'0 0.0
2017-Sep-20 17:25N 51°20' E 003°49'0 0.0
2017-Sep-20 16:55N 51°20' E 003°49'0 0.0
2017-Sep-20 16:25N 51°20' E 003°49'0 0.0
2017-Sep-20 15:58N 51°20' E 003°49'0 0.0
2017-Sep-20 15:25N 51°20' E 003°49'0 0.0
2017-Sep-20 14:55N 51°20' E 003°49'0 0.0
2017-Sep-20 13:37N 51°20' E 003°49'0 0.0
2017-Sep-20 13:28N 51°20' E 003°49'0 0.0
2017-Sep-20 12:58N 51°20' E 003°49'0 0.0
2017-Sep-20 12:25N 51°20' E 003°49'0 0.0
2017-Sep-20 11:58N 51°20' E 003°49'0 0.0
2017-Sep-20 11:25N 51°20' E 003°49'0 0.0
2017-Sep-20 10:58N 51°20' E 003°49'0 0.0
2017-Sep-20 10:28N 51°20' E 003°49'2 3.8
2017-Sep-20 10:00N 51°18' E 003°50'4 7.6
2017-Sep-20 09:31N 51°15' E 003°49'3 7.0
2017-Sep-20 09:00N 51°11' E 003°48'4 8.1
2017-Sep-20 08:30N 51°07' E 003°46'2 4.1
2017-Sep-20 08:00N 51°06' E 003°44'2 4.7
2017-Sep-20 07:31N 51°08' E 003°46'3 5.2
2017-Sep-20 07:00N 51°10' E 003°48'3 5.4
2017-Sep-20 06:30N 51°13' E 003°48'3 6.1
2017-Sep-20 06:00N 51°16' E 003°50'2 3.4
2017-Sep-20 05:30N 51°17' E 003°50'1 3.0
2017-Sep-20 05:00N 51°19' E 003°50'1 1.8
2017-Sep-20 04:30N 51°20' E 003°49'0 0.8
2017-Sep-20 03:58N 51°20' E 003°49'0 0.0
2017-Sep-20 03:28N 51°20' E 003°49'0 0.0
2017-Sep-20 02:55N 51°20' E 003°49'0 0.0
2017-Sep-20 02:28N 51°20' E 003°49'0 0.0
2017-Sep-20 01:58N 51°20' E 003°49'0 0.0
2017-Sep-20 01:25N 51°20' E 003°49'0 0.0
2017-Sep-20 00:55N 51°20' E 003°49'0 0.0
2017-Sep-20 00:25N 51°20' E 003°49'0 0.0
2017-Sep-19 23:58N 51°20' E 003°49'0 0.0
2017-Sep-19 23:19N 51°20' E 003°49'0 0.0
2017-Sep-19 22:55N 51°20' E 003°49'0 0.0
2017-Sep-19 22:28N 51°20' E 003°49'0 0.0
2017-Sep-19 21:55N 51°20' E 003°49'0 0.0
2017-Sep-19 21:25N 51°20' E 003°49'0 0.0
2017-Sep-19 20:55N 51°20' E 003°49'0 0.0
2017-Sep-19 20:19N 51°20' E 003°49'0 0.0
2017-Sep-19 19:55N 51°20' E 003°49'0 0.0
2017-Sep-19 19:25N 51°20' E 003°49'0 0.0
2017-Sep-19 18:58N 51°20' E 003°49'0 0.0
2017-Sep-19 18:22N 51°20' E 003°49'0 0.0
2017-Sep-19 17:55N 51°20' E 003°49'0 0.0
2017-Sep-19 17:28N 51°20' E 003°49'0 0.0
2017-Sep-19 16:55N 51°20' E 003°49'0 0.2
2017-Sep-19 16:30N 51°20' E 003°49'0 0.0
2017-Sep-19 16:00N 51°20' E 003°49'2 3.4
2017-Sep-19 15:30N 51°21' E 003°51'5 9.7
2017-Sep-19 15:01N 51°24' E 003°57'4 7.1
2017-Sep-19 14:29N 51°27' E 004°01'2 3.8
2017-Sep-19 14:00N 51°26' E 003°59'4 8.5
2017-Sep-19 13:30N 51°22' E 003°56'4 6.9
2017-Sep-19 12:55N 51°21' E 003°50'3 7.5
2017-Sep-19 12:30N 51°22' E 003°45'5 9.2
2017-Sep-19 12:00N 51°25' E 003°39'3 7.0
2017-Sep-19 11:31N 51°25' E 003°34'1 2.0
2017-Sep-19 11:00N 51°25' E 003°35'1 0.5
2017-Sep-19 08:47N 51°27' E 003°36'0 0.2
2017-Sep-19 08:30N 51°27' E 003°36'1 2.0
2017-Sep-19 08:00N 51°26' E 003°37'3 6.7
2017-Sep-19 07:30N 51°26' E 003°42'4 8.2
2017-Sep-19 07:00N 51°23' E 003°48'4 7.4
2017-Sep-19 06:30N 51°23' E 003°54'5 9.3
2017-Sep-19 06:00N 51°27' E 003°57'2 2.5
2017-Sep-19 05:05N 51°27' E 004°01'0 0.0
2017-Sep-19 03:17N 51°27' E 004°01'0 0.0
2017-Sep-19 02:59N 51°27' E 004°01'0 0.0
2017-Sep-19 02:17N 51°27' E 004°01'0 0.0
2017-Sep-19 01:47N 51°27' E 004°01'0 0.0
2017-Sep-19 01:23N 51°27' E 004°01'0 0.0
2017-Sep-19 00:53N 51°27' E 004°01'0 0.0
2017-Sep-19 00:11N 51°27' E 004°01'0 0.0
2017-Sep-18 23:47N 51°27' E 004°01'0 0.0
2017-Sep-18 23:23N 51°27' E 004°01'0 0.0
2017-Sep-18 22:53N 51°27' E 004°01'0 0.0
2017-Sep-18 17:47N 51°27' E 004°01'0 0.0
2017-Sep-18 17:29N 51°27' E 004°01'0 0.0
2017-Sep-18 16:53N 51°27' E 004°01'0 0.0
2017-Sep-18 15:47N 51°27' E 004°01'0 0.0
2017-Sep-18 14:17N 51°27' E 004°01'0 0.0
2017-Sep-18 13:59N 51°27' E 004°01'0 0.1
2017-Sep-18 12:40N 51°27' E 004°01'0 0.0
2017-Sep-18 12:07N 51°27' E 004°01'0 0.0
2017-Sep-18 11:55N 51°27' E 004°01'0 0.0
2017-Sep-18 11:28N 51°27' E 004°01'0 0.0
2017-Sep-18 10:39N 51°27' E 004°01'0 0.4
2017-Sep-18 10:19N 51°27' E 004°01'2 7.5
2017-Sep-18 10:00N 51°30' E 004°00'4 7.4
2017-Sep-18 09:30N 51°33' E 003°58'4 5.7
2017-Sep-18 08:47N 51°37' E 004°02'6 5.5
2017-Sep-18 07:40N 51°40' E 004°10'0 0.0
2017-Sep-17 04:47N 51°40' E 004°10'0 0.0
2017-Sep-17 04:26N 51°40' E 004°10'6 0.3
2017-Sep-16 10:36N 51°40' E 004°19'1 5.3
2017-Sep-16 10:28N 51°40' E 004°20'2 5.1
2017-Sep-16 10:00N 51°42' E 004°23'1 1.6
2017-Sep-16 09:30N 51°41' E 004°23'2 2.7
2017-Sep-16 08:51N 51°39' E 004°22'  

Dump ship's entire track history